Time;durP1;ratioP1;P1;durP2;ratioP2;P2;SDS_P1;SDS_P2;PMS_P1;PMS_P2;Temp;Humidity;BMP_temperature;BMP_pressure;BME280_temperature;BME280_humidity;BME280_pressure;Samples;Min_cycle;Max_cycle;Signal;HPM_P1;HPM_P2
2023/01/21 00:01:48;;;;;;;40.60;18.45;;;;;;;;;;5069420;28;20024;-54
2023/01/21 00:04:13;;;;;;;42.90;17.75;;;;;;;;;;5071778;28;20057;-56
2023/01/21 00:06:39;;;;;;;39.72;17.75;;;;;;;;;;5070704;28;20114;-57
2023/01/21 00:09:04;;;;;;;38.47;17.85;;;;;;;;;;5069635;28;20469;-58
2023/01/21 00:11:29;;;;;;;43.80;18.25;;;;;;;;;;5074771;28;20020;-56
2023/01/21 00:13:55;;;;;;;46.67;19.05;;;;;;;;;;5074077;28;20068;-54
2023/01/21 00:16:20;;;;;;;43.58;18.98;;;;;;;;;;5055221;28;20458;-59
2023/01/21 00:18:49;;;;;;;44.10;19.15;;;;;;;;;;5070498;28;20035;-57
2023/01/21 00:21:14;;;;;;;42.35;18.60;;;;;;;;;;5070530;28;20044;-57
2023/01/21 00:23:40;;;;;;;35.28;16.67;;;;;;;;;;5070875;28;20028;-54
2023/01/21 00:26:07;;;;;;;43.63;18.65;;;;;;;;;;5071690;28;20256;-53
2023/01/21 00:28:34;;;;;;;40.85;18.58;;;;;;;;;;5091178;28;20032;-54
2023/01/21 00:31:01;;;;;;;49.28;19.95;;;;;;;;;;5073819;28;20404;-54
2023/01/21 00:33:27;;;;;;;42.10;19.13;;;;;;;;;;5054325;28;20033;-59
2023/01/21 00:36:04;;;;;;;45.58;19.30;;;;;;;;;;5052438;28;20060;-56
2023/01/21 00:38:30;;;;;;;39.13;18.25;;;;;;;;;;5074907;28;20028;-60
2023/01/21 00:41:07;;;;;;;46.08;19.73;;;;;;;;;;5068679;28;20040;-55
2023/01/21 00:43:33;;;;;;;42.05;18.85;;;;;;;;;;5068785;28;20044;-59
2023/01/21 00:45:59;;;;;;;43.60;18.90;;;;;;;;;;5068375;28;20032;-61
2023/01/21 00:48:25;;;;;;;43.63;18.33;;;;;;;;;;5069203;28;20031;-60
2023/01/21 00:50:54;;;;;;;40.17;19.15;;;;;;;;;;5069947;28;20810;-57
2023/01/21 00:53:21;;;;;;;42.83;18.58;;;;;;;;;;5066483;28;20033;-57
2023/01/21 00:55:46;;;;;;;44.47;19.58;;;;;;;;;;5063924;28;20028;-57
2023/01/21 00:58:11;;;;;;;44.90;19.08;;;;;;;;;;5058888;28;20435;-58
2023/01/21 01:00:37;;;;;;;43.92;19.52;;;;;;;;;;5068799;28;20481;-57
2023/01/21 01:03:02;;;;;;;42.70;18.63;;;;;;;;;;5067528;28;20037;-58
2023/01/21 01:05:28;;;;;;;45.20;19.83;;;;;;;;;;5068772;28;20029;-58
2023/01/21 01:07:53;;;;;;;48.33;19.83;;;;;;;;;;5068530;28;20143;-58
2023/01/21 01:10:18;;;;;;;42.95;19.27;;;;;;;;;;5067636;28;20032;-57
2023/01/21 01:12:44;;;;;;;48.22;19.48;;;;;;;;;;5067461;28;20473;-61
2023/01/21 01:15:09;;;;;;;42.70;18.83;;;;;;;;;;5067501;28;20115;-57
2023/01/21 01:17:35;;;;;;;51.67;19.55;;;;;;;;;;5061805;28;20404;-57
2023/01/21 01:20:01;;;;;;;47.47;19.95;;;;;;;;;;5068928;28;20063;-59
2023/01/21 01:22:26;;;;;;;48.85;19.42;;;;;;;;;;5067955;28;20048;-60
2023/01/21 01:24:52;;;;;;;43.67;18.85;;;;;;;;;;5085196;28;20402;-58
2023/01/21 01:27:17;;;;;;;49.08;18.88;;;;;;;;;;5086838;28;20028;-59
2023/01/21 01:29:42;;;;;;;44.15;19.63;;;;;;;;;;5069776;28;20035;-57
2023/01/21 01:32:09;;;;;;;52.13;19.65;;;;;;;;;;5072396;28;20040;-59
2023/01/21 01:34:34;;;;;;;45.80;19.83;;;;;;;;;;5072731;28;20036;-59
2023/01/21 01:36:59;;;;;;;43.00;18.55;;;;;;;;;;5070432;28;20480;-57
2023/01/21 01:39:25;;;;;;;45.65;18.52;;;;;;;;;;5071025;28;20044;-59
2023/01/21 01:41:50;;;;;;;44.30;19.35;;;;;;;;;;5071079;28;20598;-59
2023/01/21 01:44:53;;;;;;;47.25;20.20;;;;;;;;;;5071681;28;20041;-59
2023/01/21 01:47:19;;;;;;;45.20;18.98;;;;;;;;;;5072701;28;20554;-58
2023/01/21 01:49:45;;;;;;;41.80;18.10;;;;;;;;;;5088118;28;20370;-57
2023/01/21 01:52:13;;;;;;;48.13;19.15;;;;;;;;;;5091089;28;20031;-58
2023/01/21 01:54:42;;;;;;;48.20;19.80;;;;;;;;;;5088599;28;20093;-58
2023/01/21 01:57:09;;;;;;;46.28;19.02;;;;;;;;;;5074171;28;20107;-58
2023/01/21 01:59:35;;;;;;;51.55;20.80;;;;;;;;;;5073316;28;20066;-60
2023/01/21 02:02:07;;;;;;;47.70;19.60;;;;;;;;;;5054402;28;20050;-59
2023/01/21 02:04:38;;;;;;;53.45;20.30;;;;;;;;;;5053647;28;20064;-61
2023/01/21 02:07:04;;;;;;;43.17;19.05;;;;;;;;;;5054414;28;20029;-59
2023/01/21 02:09:29;;;;;;;44.47;19.88;;;;;;;;;;5054114;28;20424;-61
2023/01/21 02:11:57;;;;;;;46.58;19.85;;;;;;;;;;5092369;28;20107;-58
2023/01/21 02:14:22;;;;;;;46.92;20.15;;;;;;;;;;5072498;28;20037;-58
2023/01/21 02:17:16;;;;;;;50.58;20.50;;;;;;;;;;5076872;28;20112;-59
2023/01/21 02:19:53;;;;;;;46.47;19.55;;;;;;;;;;5071262;28;20048;-59
2023/01/21 02:22:57;;;;;;;48.40;19.33;;;;;;;;;;5094241;28;20360;-59
2023/01/21 02:26:04;;;;;;;44.05;18.73;;;;;;;;;;5084225;28;20032;-57
2023/01/21 02:28:36;;;;;;;47.47;18.70;;;;;;;;;;5073779;28;20038;-59
2023/01/21 02:31:36;;;;;;;46.90;19.58;;;;;;;;;;5073536;28;20381;-57
2023/01/21 02:34:20;;;;;;;43.17;17.83;;;;;;;;;;4970539;28;20047;-59
2023/01/21 02:37:08;;;;;;;48.58;19.70;;;;;;;;;;5068409;28;20469;-58
2023/01/21 02:39:40;;;;;;;49.75;19.90;;;;;;;;;;5060008;28;20075;-61
2023/01/21 02:42:35;;;;;;;45.53;19.05;;;;;;;;;;5073530;28;20028;-58
2023/01/21 02:45:18;;;;;;;47.50;20.80;;;;;;;;;;5071267;28;20108;-60
2023/01/21 02:48:14;;;;;;;49.50;20.25;;;;;;;;;;5069945;28;20055;-58
2023/01/21 02:50:43;;;;;;;50.08;19.70;;;;;;;;;;5079576;28;20024;-59
2023/01/21 02:53:28;;;;;;;48.65;19.48;;;;;;;;;;5071624;28;20393;-61
2023/01/21 02:55:56;;;;;;;43.30;19.23;;;;;;;;;;5060562;28;20484;-59
2023/01/21 02:58:31;;;;;;;48.17;19.58;;;;;;;;;;5075390;28;20055;-60
2023/01/21 03:01:24;;;;;;;47.95;20.48;;;;;;;;;;5076231;28;20645;-59
2023/01/21 03:04:19;;;;;;;49.25;19.55;;;;;;;;;;5068513;28;20068;-60
2023/01/21 03:06:55;;;;;;;43.42;19.58;;;;;;;;;;5070926;28;20029;-59
2023/01/21 03:09:27;;;;;;;46.58;20.15;;;;;;;;;;5070591;28;20028;-60
2023/01/21 03:12:12;;;;;;;49.03;20.58;;;;;;;;;;5072236;28;20520;-60
2023/01/21 03:17:50;;;;;;;49.72;19.38;;;;;;;;;;5069523;28;20085;-59
2023/01/21 03:20:25;;;;;;;49.33;19.65;;;;;;;;;;5078223;28;20074;-60
2023/01/21 03:22:56;;;;;;;46.80;19.75;;;;;;;;;;5071083;28;20032;-60
2023/01/21 03:25:23;;;;;;;45.17;20.10;;;;;;;;;;5071726;28;20078;-59
2023/01/21 03:27:50;;;;;;;43.03;19.13;;;;;;;;;;5075828;28;20028;-59
2023/01/21 03:30:18;;;;;;;40.40;18.88;;;;;;;;;;5078748;28;20051;-59
2023/01/21 03:32:48;;;;;;;41.30;18.70;;;;;;;;;;5069906;28;20192;-57
2023/01/21 03:35:30;;;;;;;44.88;18.20;;;;;;;;;;5070280;28;20033;-61
2023/01/21 03:38:01;;;;;;;42.92;18.13;;;;;;;;;;5066676;28;20515;-59
2023/01/21 03:40:32;;;;;;;45.40;18.70;;;;;;;;;;5069679;28;20056;-60
2023/01/21 03:42:57;;;;;;;45.80;19.65;;;;;;;;;;5060975;28;20037;-57
2023/01/21 03:45:39;;;;;;;52.28;19.55;;;;;;;;;;5071599;28;20041;-59
2023/01/21 03:48:15;;;;;;;43.95;19.40;;;;;;;;;;5069754;28;20033;-60
2023/01/21 03:50:46;;;;;;;42.45;19.00;;;;;;;;;;5068611;28;20030;-61
2023/01/21 03:53:11;;;;;;;43.70;19.73;;;;;;;;;;5061973;28;20056;-60
2023/01/21 03:55:37;;;;;;;44.10;19.95;;;;;;;;;;5061924;28;20465;-60
2023/01/21 03:58:02;;;;;;;48.92;20.63;;;;;;;;;;5069809;28;20046;-60
2023/01/21 04:00:27;;;;;;;51.60;19.77;;;;;;;;;;5071343;28;20114;-61
2023/01/21 04:02:53;;;;;;;47.78;19.58;;;;;;;;;;5076634;28;20365;-60
2023/01/21 04:05:18;;;;;;;46.42;19.33;;;;;;;;;;5075776;28;20040;-60
2023/01/21 04:07:45;;;;;;;44.28;19.30;;;;;;;;;;5072752;28;20041;-59
2023/01/21 04:10:10;;;;;;;44.28;19.48;;;;;;;;;;5072104;28;20113;-60
2023/01/21 04:12:36;;;;;;;44.17;19.08;;;;;;;;;;5071164;28;20029;-60
2023/01/21 04:15:02;;;;;;;48.53;19.30;;;;;;;;;;5070872;28;20040;-60
2023/01/21 04:17:27;;;;;;;44.83;18.80;;;;;;;;;;5070510;28;20028;-60
2023/01/21 04:19:53;;;;;;;45.33;19.60;;;;;;;;;;5074303;28;20025;-63
2023/01/21 04:22:19;;;;;;;46.30;19.55;;;;;;;;;;5070533;28;20059;-60
2023/01/21 04:24:45;;;;;;;47.95;18.98;;;;;;;;;;5069283;28;20058;-61
2023/01/21 04:27:10;;;;;;;54.95;19.77;;;;;;;;;;5069583;28;20036;-60
2023/01/21 04:29:36;;;;;;;48.90;19.77;;;;;;;;;;5070817;28;20066;-59
2023/01/21 04:32:01;;;;;;;51.35;20.45;;;;;;;;;;5068837;28;20017;-61
2023/01/21 04:34:27;;;;;;;50.75;20.75;;;;;;;;;;5069381;28;20032;-59
2023/01/21 04:36:52;;;;;;;46.55;19.65;;;;;;;;;;5076085;28;20032;-57
2023/01/21 04:39:18;;;;;;;53.60;20.00;;;;;;;;;;5068488;28;20542;-59
2023/01/21 04:41:44;;;;;;;48.38;19.27;;;;;;;;;;5068648;28;20453;-59
2023/01/21 04:44:09;;;;;;;50.33;19.98;;;;;;;;;;5070976;28;20036;-58
2023/01/21 04:46:35;;;;;;;51.38;20.25;;;;;;;;;;5071130;28;20029;-60
2023/01/21 04:49:00;;;;;;;49.65;19.50;;;;;;;;;;5067748;28;20735;-60
2023/01/21 04:51:26;;;;;;;49.75;20.10;;;;;;;;;;5070798;28;20472;-60
2023/01/21 04:53:51;;;;;;;47.95;19.80;;;;;;;;;;5069062;28;20036;-61
2023/01/21 04:56:17;;;;;;;51.65;20.63;;;;;;;;;;5070986;28;20043;-60
2023/01/21 04:58:42;;;;;;;49.22;19.80;;;;;;;;;;5071168;28;20051;-60
2023/01/21 05:01:08;;;;;;;58.58;21.08;;;;;;;;;;5068281;28;20059;-60
2023/01/21 05:03:33;;;;;;;52.95;20.70;;;;;;;;;;5069795;28;20044;-60
2023/01/21 05:05:58;;;;;;;51.53;20.55;;;;;;;;;;5063787;28;20033;-60
2023/01/21 05:08:24;;;;;;;47.20;19.75;;;;;;;;;;5070929;28;20031;-61
2023/01/21 05:10:49;;;;;;;52.95;20.13;;;;;;;;;;5068309;28;20033;-60
2023/01/21 05:13:14;;;;;;;50.88;19.85;;;;;;;;;;5070099;28;20115;-60
2023/01/21 05:15:40;;;;;;;51.53;20.33;;;;;;;;;;5075403;28;20032;-60
2023/01/21 05:18:05;;;;;;;50.55;20.02;;;;;;;;;;5090656;28;20335;-61
2023/01/21 05:20:31;;;;;;;50.38;19.40;;;;;;;;;;5070658;28;20477;-60
2023/01/21 05:22:56;;;;;;;49.58;19.83;;;;;;;;;;5069311;28;20135;-60
2023/01/21 05:25:22;;;;;;;55.13;20.83;;;;;;;;;;5068186;28;20426;-61
2023/01/21 05:27:52;;;;;;;49.35;19.08;;;;;;;;;;5069576;28;20039;-62
2023/01/21 05:30:17;;;;;;;48.65;20.00;;;;;;;;;;5071994;28;20461;-60
2023/01/21 05:32:42;;;;;;;51.58;19.85;;;;;;;;;;5074942;28;20062;-60
2023/01/21 05:35:08;;;;;;;59.95;21.10;;;;;;;;;;5076676;28;20044;-60
2023/01/21 05:37:34;;;;;;;53.60;19.95;;;;;;;;;;5071943;28;20033;-60
2023/01/21 05:39:59;;;;;;;57.75;21.40;;;;;;;;;;5069365;28;20032;-60
2023/01/21 05:42:24;;;;;;;58.78;21.38;;;;;;;;;;5055785;28;20493;-60
2023/01/21 05:44:50;;;;;;;54.22;20.80;;;;;;;;;;5067091;28;20036;-60
2023/01/21 05:47:15;;;;;;;54.22;20.65;;;;;;;;;;5074451;28;20496;-60
2023/01/21 05:49:40;;;;;;;57.92;20.58;;;;;;;;;;5066848;28;20033;-59
2023/01/21 05:52:06;;;;;;;63.40;22.98;;;;;;;;;;5071538;28;20617;-59
2023/01/21 05:54:31;;;;;;;57.83;20.13;;;;;;;;;;5072273;28;20040;-61
2023/01/21 05:56:57;;;;;;;62.85;21.63;;;;;;;;;;5073182;28;20028;-59
2023/01/21 05:59:22;;;;;;;60.88;21.42;;;;;;;;;;5073625;28;20377;-61
2023/01/21 06:01:47;;;;;;;69.43;23.40;;;;;;;;;;5071998;28;20405;-59
2023/01/21 06:04:13;;;;;;;65.18;22.17;;;;;;;;;;5071401;28;20107;-60
2023/01/21 06:06:39;;;;;;;63.70;22.23;;;;;;;;;;5081918;28;20381;-60
2023/01/21 06:09:05;;;;;;;67.53;23.92;;;;;;;;;;5071247;28;20024;-59
2023/01/21 06:11:30;;;;;;;62.67;22.65;;;;;;;;;;5071953;28;20052;-60
2023/01/21 06:13:56;;;;;;;69.03;23.65;;;;;;;;;;5069641;28;20533;-61
2023/01/21 06:16:21;;;;;;;69.68;22.95;;;;;;;;;;5071967;28;20032;-59
2023/01/21 06:18:46;;;;;;;65.43;22.08;;;;;;;;;;5073579;28;20035;-60
2023/01/21 06:21:12;;;;;;;71.70;22.50;;;;;;;;;;5070831;28;20024;-60
2023/01/21 06:23:37;;;;;;;65.75;22.85;;;;;;;;;;5073867;28;20028;-60
2023/01/21 06:26:03;;;;;;;73.38;23.75;;;;;;;;;;5071803;28;20500;-60
2023/01/21 06:28:29;;;;;;;71.95;23.02;;;;;;;;;;5072672;28;20082;-59
2023/01/21 06:30:54;;;;;;;72.53;23.67;;;;;;;;;;5071150;28;20041;-61
2023/01/21 06:33:20;;;;;;;64.43;22.98;;;;;;;;;;5070616;28;20040;-60
2023/01/21 06:35:46;;;;;;;64.40;22.52;;;;;;;;;;5071827;28;20024;-59
2023/01/21 06:38:11;;;;;;;73.13;22.70;;;;;;;;;;5071672;28;20416;-60
2023/01/21 06:40:37;;;;;;;70.88;22.60;;;;;;;;;;5071537;28;20496;-60
2023/01/21 06:43:02;;;;;;;71.32;23.40;;;;;;;;;;5070282;28;20029;-60
2023/01/21 06:45:27;;;;;;;71.75;24.02;;;;;;;;;;5070686;28;20032;-59
2023/01/21 06:47:53;;;;;;;79.40;24.13;;;;;;;;;;5072258;28;20112;-61
2023/01/21 06:50:18;;;;;;;72.80;23.35;;;;;;;;;;5071299;28;20043;-59
2023/01/21 06:52:46;;;;;;;85.28;24.52;;;;;;;;;;5072657;28;20024;-60
2023/01/21 06:55:12;;;;;;;75.38;23.95;;;;;;;;;;5078027;28;20115;-61
2023/01/21 06:57:38;;;;;;;76.30;23.13;;;;;;;;;;5072684;28;20040;-60
2023/01/21 07:00:06;;;;;;;75.90;24.10;;;;;;;;;;5070705;28;20041;-61
2023/01/21 07:02:31;;;;;;;77.70;23.88;;;;;;;;;;5060314;28;20033;-60
2023/01/21 07:04:58;;;;;;;80.20;23.88;;;;;;;;;;5056339;28;20384;-60
2023/01/21 07:07:24;;;;;;;82.00;24.35;;;;;;;;;;5053179;28;20032;-59
2023/01/21 07:09:49;;;;;;;76.90;24.55;;;;;;;;;;5069564;28;20389;-60
2023/01/21 07:12:15;;;;;;;78.25;25.27;;;;;;;;;;5091418;28;20114;-57
2023/01/21 07:14:40;;;;;;;69.85;23.08;;;;;;;;;;5093207;28;20032;-59
2023/01/21 07:17:06;;;;;;;73.65;23.58;;;;;;;;;;5081742;28;20469;-59
2023/01/21 07:19:32;;;;;;;75.38;24.25;;;;;;;;;;5075748;28;20032;-59
2023/01/21 07:21:57;;;;;;;70.70;23.73;;;;;;;;;;5080235;28;20036;-60
2023/01/21 07:24:22;;;;;;;66.03;22.50;;;;;;;;;;5092872;28;20024;-57
2023/01/21 07:26:48;;;;;;;74.32;23.92;;;;;;;;;;5084408;28;20047;-58
2023/01/21 07:29:13;;;;;;;80.43;23.67;;;;;;;;;;5069887;28;20221;-58
2023/01/21 07:31:39;;;;;;;67.22;23.77;;;;;;;;;;5065750;28;20029;-59
2023/01/21 07:34:05;;;;;;;71.05;23.13;;;;;;;;;;5070958;28;20130;-61
2023/01/21 07:36:30;;;;;;;69.43;23.05;;;;;;;;;;5075645;28;20040;-54
2023/01/21 07:38:56;;;;;;;62.17;22.23;;;;;;;;;;5069811;28;20045;-61
2023/01/21 07:41:21;;;;;;;57.13;22.52;;;;;;;;;;5072344;28;20523;-58
2023/01/21 07:43:47;;;;;;;62.58;21.60;;;;;;;;;;5070291;28;20068;-57
2023/01/21 07:46:21;;;;;;;63.78;21.75;;;;;;;;;;5070128;28;20054;-56
2023/01/21 07:48:47;;;;;;;60.72;21.35;;;;;;;;;;5072536;28;20036;-59
2023/01/21 07:51:13;;;;;;;58.63;19.80;;;;;;;;;;5091520;28;20047;-58
2023/01/21 07:53:38;;;;;;;56.58;20.88;;;;;;;;;;5081957;28;20059;-56
2023/01/21 07:56:05;;;;;;;54.50;21.00;;;;;;;;;;5070905;28;20119;-58
2023/01/21 07:58:30;;;;;;;54.00;19.73;;;;;;;;;;5072389;28;20039;-58
2023/01/21 08:00:56;;;;;;;51.67;20.45;;;;;;;;;;5071959;28;20044;-60
2023/01/21 08:03:23;;;;;;;55.53;19.63;;;;;;;;;;5069120;28;20416;-57
2023/01/21 08:05:50;;;;;;;51.08;20.00;;;;;;;;;;5070266;28;20058;-57
2023/01/21 08:08:16;;;;;;;51.00;20.20;;;;;;;;;;5072331;28;20031;-59
2023/01/21 08:10:42;;;;;;;48.88;20.67;;;;;;;;;;5092339;28;20028;-59
2023/01/21 08:13:07;;;;;;;51.10;18.67;;;;;;;;;;5068642;28;20401;-58
2023/01/21 08:15:32;;;;;;;55.85;19.73;;;;;;;;;;5092021;28;20024;-57
2023/01/21 08:17:58;;;;;;;52.85;21.45;;;;;;;;;;5090639;28;20109;-59
2023/01/21 08:20:23;;;;;;;48.92;19.25;;;;;;;;;;5090532;28;20457;-58
2023/01/21 08:22:49;;;;;;;59.78;20.55;;;;;;;;;;5071608;28;20085;-60
2023/01/21 08:25:14;;;;;;;60.35;21.92;;;;;;;;;;5086272;28;20039;-59
2023/01/21 08:27:40;;;;;;;52.13;21.05;;;;;;;;;;5081616;28;20036;-58
2023/01/21 08:30:06;;;;;;;52.05;20.17;;;;;;;;;;5070668;28;20441;-58
2023/01/21 08:32:31;;;;;;;51.95;21.10;;;;;;;;;;5069283;28;20436;-59
2023/01/21 08:34:57;;;;;;;57.80;21.65;;;;;;;;;;5070903;28;20036;-60
2023/01/21 08:37:22;;;;;;;49.80;20.38;;;;;;;;;;5068449;28;20037;-57
2023/01/21 08:39:47;;;;;;;59.15;22.08;;;;;;;;;;5050231;28;20036;-57
2023/01/21 08:42:13;;;;;;;52.08;20.63;;;;;;;;;;5053954;28;20040;-57
2023/01/21 08:44:38;;;;;;;48.95;20.85;;;;;;;;;;5083408;28;20021;-58
2023/01/21 08:47:04;;;;;;;52.90;20.17;;;;;;;;;;5089652;28;20081;-57
2023/01/21 08:49:29;;;;;;;49.35;20.27;;;;;;;;;;5068475;28;20081;-59
2023/01/21 08:51:54;;;;;;;51.35;21.02;;;;;;;;;;5075761;28;20403;-57
2023/01/21 08:54:20;;;;;;;56.30;20.52;;;;;;;;;;5089636;28;20040;-57
2023/01/21 08:56:45;;;;;;;53.03;20.90;;;;;;;;;;5081507;28;20088;-57
2023/01/21 08:59:10;;;;;;;46.40;19.35;;;;;;;;;;5069994;28;20032;-59
2023/01/21 09:01:39;;;;;;;48.97;19.55;;;;;;;;;;5069649;28;20067;-54
2023/01/21 09:04:05;;;;;;;46.75;18.88;;;;;;;;;;5071109;28;20029;-55
2023/01/21 09:06:31;;;;;;;45.47;19.33;;;;;;;;;;5073591;28;20029;-57
2023/01/21 09:08:57;;;;;;;53.28;20.35;;;;;;;;;;5056042;28;20037;-53
2023/01/21 09:11:23;;;;;;;51.47;19.67;;;;;;;;;;5068125;28;20039;-55
2023/01/21 09:13:48;;;;;;;47.50;18.20;;;;;;;;;;5094346;28;20055;-57
2023/01/21 09:16:17;;;;;;;46.00;19.15;;;;;;;;;;5086563;28;20462;-54
2023/01/21 09:18:42;;;;;;;44.80;18.77;;;;;;;;;;5079446;28;20492;-57
2023/01/21 09:21:09;;;;;;;50.67;20.05;;;;;;;;;;5078243;28;20100;-56
2023/01/21 09:23:36;;;;;;;46.97;19.25;;;;;;;;;;5088217;28;20036;-57
2023/01/21 09:26:07;;;;;;;49.53;19.98;;;;;;;;;;5071933;28;20032;-60
2023/01/21 09:28:35;;;;;;;46.90;19.40;;;;;;;;;;5067688;28;20112;-59
2023/01/21 09:31:03;;;;;;;46.83;18.98;;;;;;;;;;5067876;28;20044;-60
2023/01/21 09:33:30;;;;;;;43.97;18.45;;;;;;;;;;5056630;28;20033;-58
2023/01/21 09:35:57;;;;;;;47.53;18.27;;;;;;;;;;5071673;28;20126;-59
2023/01/21 09:38:23;;;;;;;48.03;18.90;;;;;;;;;;5074857;28;20033;-60
2023/01/21 09:40:49;;;;;;;50.85;19.88;;;;;;;;;;5061911;28;20032;-61
2023/01/21 09:43:37;;;;;;;50.42;19.27;;;;;;;;;;5061429;28;20037;-59
2023/01/21 09:46:10;;;;;;;45.20;18.35;;;;;;;;;;5065636;28;20036;-61
2023/01/21 09:48:40;;;;;;;47.80;18.83;;;;;;;;;;5088137;28;20067;-59
2023/01/21 09:51:15;;;;;;;47.38;18.02;;;;;;;;;;5057816;28;20047;-59
2023/01/21 09:53:48;;;;;;;56.67;21.73;;;;;;;;;;5071970;28;20515;-58
2023/01/21 09:56:22;;;;;;;50.97;19.85;;;;;;;;;;5087191;28;20472;-58
2023/01/21 09:58:58;;;;;;;51.70;20.90;;;;;;;;;;5077322;28;20028;-59
2023/01/21 10:01:42;;;;;;;50.03;20.48;;;;;;;;;;5065316;28;20048;-60
2023/01/21 10:04:40;;;;;;;45.03;18.88;;;;;;;;;;5078277;28;20031;-60
2023/01/21 10:07:19;;;;;;;49.92;19.85;;;;;;;;;;5084348;28;20389;-61
2023/01/21 10:10:20;;;;;;;48.95;19.45;;;;;;;;;;5072790;28;20396;-59
2023/01/21 10:13:03;;;;;;;52.22;19.15;;;;;;;;;;5071741;28;20436;-58
2023/01/21 10:15:34;;;;;;;49.55;19.77;;;;;;;;;;5067536;28;20040;-59
2023/01/21 10:18:27;;;;;;;44.47;19.08;;;;;;;;;;5071158;28;20028;-59
2023/01/21 10:21:03;;;;;;;44.95;19.45;;;;;;;;;;5063411;28;20033;-60
2023/01/21 10:23:41;;;;;;;47.35;19.55;;;;;;;;;;5053050;28;20382;-60
2023/01/21 10:26:11;;;;;;;48.22;18.98;;;;;;;;;;5056180;28;20042;-59
2023/01/21 10:28:39;;;;;;;47.08;18.63;;;;;;;;;;5073611;28;20028;-60
2023/01/21 10:31:19;;;;;;;45.28;18.90;;;;;;;;;;5072852;28;20036;-61
2023/01/21 10:33:45;;;;;;;43.55;18.20;;;;;;;;;;5073774;28;20067;-59
2023/01/21 10:36:40;;;;;;;45.20;19.25;;;;;;;;;;5091177;28;20487;-60
2023/01/21 10:39:27;;;;;;;43.25;18.33;;;;;;;;;;5085837;28;20099;-59
2023/01/21 10:42:11;;;;;;;42.53;18.60;;;;;;;;;;5089173;28;20535;-60
2023/01/21 10:44:52;;;;;;;44.05;18.55;;;;;;;;;;5070642;28;20032;-59
2023/01/21 10:47:29;;;;;;;42.92;18.85;;;;;;;;;;5072002;28;20557;-59
2023/01/21 10:50:20;;;;;;;44.50;18.60;;;;;;;;;;5073209;28;20477;-60
2023/01/21 10:52:51;;;;;;;44.90;19.95;;;;;;;;;;5072771;28;20044;-58
2023/01/21 10:55:39;;;;;;;38.05;17.33;;;;;;;;;;5072459;28;20496;-59
2023/01/21 10:58:18;;;;;;;41.47;17.65;;;;;;;;;;5070414;28;20032;-60
2023/01/21 11:00:48;;;;;;;41.63;17.58;;;;;;;;;;5071786;28;20128;-59
2023/01/21 11:03:19;;;;;;;37.40;17.85;;;;;;;;;;5087327;28;20028;-58
2023/01/21 11:05:44;;;;;;;40.20;17.20;;;;;;;;;;5073654;28;20093;-58
2023/01/21 11:08:19;;;;;;;45.78;18.80;;;;;;;;;;5091620;28;20044;-56
2023/01/21 11:10:48;;;;;;;37.05;16.83;;;;;;;;;;5074351;28;20039;-57
2023/01/21 11:13:14;;;;;;;36.95;15.88;;;;;;;;;;5071953;28;20033;-58
2023/01/21 11:15:46;;;;;;;37.20;15.95;;;;;;;;;;5072416;28;20039;-59
2023/01/21 11:18:38;;;;;;;42.95;17.50;;;;;;;;;;5065310;28;20496;-57
2023/01/21 11:21:20;;;;;;;38.30;17.13;;;;;;;;;;5065531;28;20052;-57
2023/01/21 11:23:53;;;;;;;38.08;16.13;;;;;;;;;;5072544;28;20473;-58
2023/01/21 11:26:35;;;;;;;37.78;16.08;;;;;;;;;;5075636;28;20023;-58
2023/01/21 11:29:37;;;;;;;32.60;15.20;;;;;;;;;;5080507;28;20044;-58
2023/01/21 11:32:10;;;;;;;32.40;14.73;;;;;;;;;;5071677;28;20058;-58
2023/01/21 11:34:35;;;;;;;33.50;15.10;;;;;;;;;;5083280;28;20036;-57
2023/01/21 11:37:06;;;;;;;38.25;16.77;;;;;;;;;;5065983;28;20032;-56
2023/01/21 11:39:33;;;;;;;;;;;;;;;;;;5070109;28;20037;-58
2023/01/21 11:42:05;;;;;;;34.60;13.35;;;;;;;;;;5071812;28;20007;-57
2023/01/21 11:44:32;;;;;;;31.65;14.63;;;;;;;;;;5061005;28;20032;-57
2023/01/21 11:46:57;;;;;;;33.72;15.55;;;;;;;;;;5060497;28;20470;-57
2023/01/21 11:49:26;;;;;;;32.47;14.48;;;;;;;;;;5085026;28;20031;-56
2023/01/21 11:52:14;;;;;;;31.65;15.05;;;;;;;;;;5074728;28;20033;-57
2023/01/21 11:54:39;;;;;;;29.58;13.80;;;;;;;;;;5052689;28;20036;-57
2023/01/21 11:57:05;;;;;;;28.73;13.38;;;;;;;;;;5069014;28;20409;-58
2023/01/21 11:59:32;;;;;;;31.33;13.82;;;;;;;;;;5081949;28;20045;-59
2023/01/21 12:02:18;;;;;;;32.38;15.27;;;;;;;;;;5062570;28;20032;-58
2023/01/21 12:04:48;;;;;;;27.80;12.98;;;;;;;;;;5072111;28;20111;-58
2023/01/21 12:07:36;;;;;;;28.88;14.05;;;;;;;;;;5069382;28;20051;-57
2023/01/21 12:10:05;;;;;;;28.85;13.85;;;;;;;;;;5069716;28;20094;-55
2023/01/21 12:12:59;;;;;;;30.73;13.23;;;;;;;;;;5070670;28;20111;-58
2023/01/21 12:15:36;;;;;;;30.40;12.80;;;;;;;;;;5070826;28;20055;-58
2023/01/21 12:18:22;;;;;;;29.65;13.23;;;;;;;;;;5070910;28;20024;-58
2023/01/21 12:21:05;;;;;;;25.92;13.15;;;;;;;;;;5092218;28;20032;-58
2023/01/21 12:23:48;;;;;;;30.05;13.93;;;;;;;;;;5077391;28;20111;-57
2023/01/21 12:26:28;;;;;;;31.02;14.07;;;;;;;;;;5070425;28;20028;-58
2023/01/21 12:29:04;;;;;;;25.67;12.63;;;;;;;;;;5079236;28;20042;-57
2023/01/21 12:31:44;;;;;;;26.50;12.50;;;;;;;;;;5089889;28;20057;-58
2023/01/21 12:34:36;;;;;;;23.98;12.43;;;;;;;;;;5078790;28;20036;-60
2023/01/21 12:37:09;;;;;;;24.70;11.88;;;;;;;;;;5071793;28;20029;-57
2023/01/21 12:39:36;;;;;;;26.83;12.52;;;;;;;;;;5068982;28;20173;-57
2023/01/21 12:42:21;;;;;;;25.67;13.13;;;;;;;;;;5071967;28;20082;-57
2023/01/21 12:44:54;;;;;;;27.23;12.88;;;;;;;;;;5090579;28;20059;-59
2023/01/21 12:47:20;;;;;;;26.75;12.98;;;;;;;;;;5090947;28;20031;-59
2023/01/21 12:50:02;;;;;;;27.02;13.52;;;;;;;;;;5076317;28;20028;-60
2023/01/21 12:52:48;;;;;;;26.27;13.50;;;;;;;;;;5073677;28;20090;-60
2023/01/21 12:55:43;;;;;;;29.83;12.80;;;;;;;;;;5068460;28;20048;-60
2023/01/21 12:58:13;;;;;;;28.85;14.23;;;;;;;;;;5054639;28;20031;-58
2023/01/21 13:00:46;;;;;;;25.63;12.77;;;;;;;;;;5068771;28;20045;-60
2023/01/21 13:03:18;;;;;;;25.38;12.75;;;;;;;;;;5068305;28;20037;-62
2023/01/21 13:05:55;;;;;;;29.67;13.27;;;;;;;;;;5069555;28;20036;-59
2023/01/21 13:08:37;;;;;;;28.00;13.65;;;;;;;;;;5070475;28;20028;-59
2023/01/21 13:11:22;;;;;;;30.25;13.98;;;;;;;;;;5070606;28;20090;-58
2023/01/21 13:13:55;;;;;;;35.30;14.63;;;;;;;;;;5068749;28;20033;-58
2023/01/21 13:16:24;;;;;;;30.33;14.00;;;;;;;;;;5066911;28;20374;-60
2023/01/21 13:18:52;;;;;;;29.23;13.90;;;;;;;;;;5085322;28;20122;-60
2023/01/21 13:21:39;;;;;;;31.10;14.02;;;;;;;;;;5065903;28;20036;-62
2023/01/21 13:24:23;;;;;;;27.30;13.45;;;;;;;;;;5067960;28;20367;-63
2023/01/21 13:27:20;;;;;;;32.05;14.40;;;;;;;;;;5066741;28;20040;-60
2023/01/21 13:30:00;;;;;;;29.25;14.32;;;;;;;;;;5034839;28;20052;-59
2023/01/21 13:32:55;;;;;;;28.42;14.43;;;;;;;;;;5073983;28;20032;-57
2023/01/21 13:35:38;;;;;;;33.90;14.52;;;;;;;;;;5060782;28;20492;-57
2023/01/21 13:39:11;;;;;;;29.75;14.43;;;;;;;;;;5063228;28;20114;-58
2023/01/21 13:41:58;;;;;;;29.38;14.60;;;;;;;;;;5004783;28;20056;-57
2023/01/21 13:44:26;;;;;;;31.73;14.77;;;;;;;;;;4988290;28;20499;-57
2023/01/21 13:47:16;;;;;;;28.80;13.82;;;;;;;;;;4991435;28;20113;-57
2023/01/21 13:49:56;;;;;;;30.88;15.60;;;;;;;;;;5025352;28;20517;-57
2023/01/21 13:52:33;;;;;;;28.63;14.10;;;;;;;;;;5016365;28;20045;-59
2023/01/21 13:55:17;;;;;;;30.55;13.95;;;;;;;;;;5032370;28;20121;-57
2023/01/21 13:57:45;;;;;;;35.03;14.57;;;;;;;;;;5026020;28;20038;-57
2023/01/21 14:00:22;;;;;;;34.83;15.40;;;;;;;;;;5021625;28;20041;-58
2023/01/21 14:03:10;;;;;;;29.42;14.50;;;;;;;;;;5013205;28;20042;-56
2023/01/21 14:06:14;;;;;;;30.90;14.60;;;;;;;;;;5030444;28;20120;-59
2023/01/21 14:08:58;;;;;;;31.08;14.52;;;;;;;;;;5009819;28;20049;-59
2023/01/21 14:11:34;;;;;;;29.35;14.20;;;;;;;;;;5016915;28;20029;-53
2023/01/21 14:13:59;;;;;;;28.77;13.18;;;;;;;;;;5089467;28;20550;-56
2023/01/21 14:16:51;;;;;;;32.15;14.18;;;;;;;;;;5076894;28;20044;-58
2023/01/21 14:19:22;;;;;;;28.63;13.70;;;;;;;;;;5077163;28;20085;-60
2023/01/21 14:22:06;;;;;;;;;;;;;;;;;;5066487;28;20029;-58
2023/01/21 14:24:47;;;;;;;30.67;14.13;;;;;;;;;;5069950;28;19942;-57
2023/01/21 14:27:15;;;;;;;;;;;;;;;;;;5072686;28;20427;-58
2023/01/21 14:29:46;;;;;;;28.05;12.77;;;;;;;;;;5076894;28;19998;-58
2023/01/21 14:32:21;;;;;;;30.85;13.82;;;;;;;;;;5073817;28;20112;-58
2023/01/21 14:35:01;;;;;;;28.58;13.20;;;;;;;;;;5073989;28;20041;-58
2023/01/21 14:37:43;;;;;;;25.90;12.35;;;;;;;;;;5073022;28;20465;-58
2023/01/21 14:40:14;;;;;;;25.20;12.50;;;;;;;;;;5073873;28;20041;-58
2023/01/21 14:42:48;;;;;;;29.48;12.82;;;;;;;;;;5072808;28;20060;-58
2023/01/21 14:45:15;;;;;;;26.25;12.80;;;;;;;;;;5073584;28;20025;-58
2023/01/21 14:47:46;;;;;;;28.77;13.00;;;;;;;;;;5072948;28;20199;-56